sensor_id;sensor_type;location;lat;lon;timestamp;P1;durP1;ratioP1;P2;durP2;ratioP2
13710;SDS011;6927;51.256;9.410;2023-11-19T00:00:42;456.97;;;436.83;;
13710;SDS011;6927;51.256;9.410;2023-11-19T00:03:07;416.53;;;398.93;;
13710;SDS011;6927;51.256;9.410;2023-11-19T00:05:33;373.57;;;358.30;;
13710;SDS011;6927;51.256;9.410;2023-11-19T00:07:59;394.93;;;378.40;;
13710;SDS011;6927;51.256;9.410;2023-11-19T00:10:24;328.13;;;314.97;;
13710;SDS011;6927;51.256;9.410;2023-11-19T00:12:50;365.37;;;349.73;;
13710;SDS011;6927;51.256;9.410;2023-11-19T00:15:16;328.07;;;314.50;;
13710;SDS011;6927;51.256;9.410;2023-11-19T00:17:44;354.73;;;340.50;;
13710;SDS011;6927;51.256;9.410;2023-11-19T00:20:19;319.90;;;306.80;;
13710;SDS011;6927;51.256;9.410;2023-11-19T00:22:47;346.80;;;332.40;;
13710;SDS011;6927;51.256;9.410;2023-11-19T00:25:16;251.73;;;242.40;;
13710;SDS011;6927;51.256;9.410;2023-11-19T00:27:42;370.50;;;355.47;;
13710;SDS011;6927;51.256;9.410;2023-11-19T00:30:09;382.70;;;367.00;;
13710;SDS011;6927;51.256;9.410;2023-11-19T00:32:35;363.57;;;348.43;;
13710;SDS011;6927;51.256;9.410;2023-11-19T00:35:03;357.07;;;342.63;;
13710;SDS011;6927;51.256;9.410;2023-11-19T00:37:29;363.67;;;348.53;;
13710;SDS011;6927;51.256;9.410;2023-11-19T00:39:55;335.57;;;322.03;;
13710;SDS011;6927;51.256;9.410;2023-11-19T00:42:23;203.93;;;196.43;;
13710;SDS011;6927;51.256;9.410;2023-11-19T00:44:50;372.87;;;357.60;;
13710;SDS011;6927;51.256;9.410;2023-11-19T00:47:16;271.67;;;261.27;;
13710;SDS011;6927;51.256;9.410;2023-11-19T00:49:41;282.97;;;271.97;;
13710;SDS011;6927;51.256;9.410;2023-11-19T00:52:07;362.20;;;347.97;;
13710;SDS011;6927;51.256;9.410;2023-11-19T00:54:33;298.23;;;286.80;;
13710;SDS011;6927;51.256;9.410;2023-11-19T00:56:59;353.33;;;338.90;;
13710;SDS011;6927;51.256;9.410;2023-11-19T00:59:26;319.47;;;307.03;;
13710;SDS011;6927;51.256;9.410;2023-11-19T01:01:53;294.70;;;283.33;;
13710;SDS011;6927;51.256;9.410;2023-11-19T01:04:19;330.17;;;317.00;;
13710;SDS011;6927;51.256;9.410;2023-11-19T01:06:44;334.03;;;320.67;;
13710;SDS011;6927;51.256;9.410;2023-11-19T01:09:10;299.13;;;287.17;;
13710;SDS011;6927;51.256;9.410;2023-11-19T01:11:36;224.30;;;215.77;;
13710;SDS011;6927;51.256;9.410;2023-11-19T01:14:01;260.03;;;250.07;;
13710;SDS011;6927;51.256;9.410;2023-11-19T01:16:27;261.83;;;252.13;;
13710;SDS011;6927;51.256;9.410;2023-11-19T01:18:53;316.23;;;303.90;;
13710;SDS011;6927;51.256;9.410;2023-11-19T01:21:18;299.13;;;287.47;;
13710;SDS011;6927;51.256;9.410;2023-11-19T01:23:44;253.87;;;244.37;;
13710;SDS011;6927;51.256;9.410;2023-11-19T01:26:10;305.87;;;294.20;;
13710;SDS011;6927;51.256;9.410;2023-11-19T01:28:37;272.37;;;262.13;;
13710;SDS011;6927;51.256;9.410;2023-11-19T01:31:04;214.50;;;206.47;;
13710;SDS011;6927;51.256;9.410;2023-11-19T01:33:30;290.50;;;279.47;;
13710;SDS011;6927;51.256;9.410;2023-11-19T01:35:56;184.10;;;177.30;;
13710;SDS011;6927;51.256;9.410;2023-11-19T01:38:23;278.87;;;268.07;;
13710;SDS011;6927;51.256;9.410;2023-11-19T01:40:49;308.30;;;296.43;;
13710;SDS011;6927;51.256;9.410;2023-11-19T01:43:30;261.77;;;251.90;;
13710;SDS011;6927;51.256;9.410;2023-11-19T01:46:12;199.97;;;192.47;;
13710;SDS011;6927;51.256;9.410;2023-11-19T01:48:41;228.83;;;220.03;;
13710;SDS011;6927;51.256;9.410;2023-11-19T01:51:09;284.00;;;273.30;;
13710;SDS011;6927;51.256;9.410;2023-11-19T01:53:36;257.00;;;246.80;;
13710;SDS011;6927;51.256;9.410;2023-11-19T01:56:03;251.73;;;242.17;;
13710;SDS011;6927;51.256;9.410;2023-11-19T01:58:30;235.57;;;226.67;;
13710;SDS011;6927;51.256;9.410;2023-11-19T02:00:56;228.33;;;219.87;;
13710;SDS011;6927;51.256;9.410;2023-11-19T02:03:22;244.40;;;235.13;;
13710;SDS011;6927;51.256;9.410;2023-11-19T02:05:50;226.90;;;218.23;;
13710;SDS011;6927;51.256;9.410;2023-11-19T02:08:18;244.57;;;235.30;;
13710;SDS011;6927;51.256;9.410;2023-11-19T02:10:45;242.13;;;233.10;;
13710;SDS011;6927;51.256;9.410;2023-11-19T02:13:10;237.47;;;228.60;;
13710;SDS011;6927;51.256;9.410;2023-11-19T02:15:38;220.17;;;211.53;;
13710;SDS011;6927;51.256;9.410;2023-11-19T02:18:23;236.00;;;227.07;;
13710;SDS011;6927;51.256;9.410;2023-11-19T02:20:52;221.93;;;213.60;;
13710;SDS011;6927;51.256;9.410;2023-11-19T02:23:19;212.90;;;204.97;;
13710;SDS011;6927;51.256;9.410;2023-11-19T02:25:58;231.10;;;222.17;;
13710;SDS011;6927;51.256;9.410;2023-11-19T02:28:26;229.30;;;220.57;;
13710;SDS011;6927;51.256;9.410;2023-11-19T02:30:52;232.80;;;223.87;;
13710;SDS011;6927;51.256;9.410;2023-11-19T02:33:18;285.87;;;274.40;;
13710;SDS011;6927;51.256;9.410;2023-11-19T02:35:43;223.87;;;215.27;;
13710;SDS011;6927;51.256;9.410;2023-11-19T02:38:09;238.63;;;229.57;;
13710;SDS011;6927;51.256;9.410;2023-11-19T02:40:36;224.20;;;215.67;;
13710;SDS011;6927;51.256;9.410;2023-11-19T02:43:01;237.70;;;228.77;;
13710;SDS011;6927;51.256;9.410;2023-11-19T02:45:29;226.60;;;218.07;;
13710;SDS011;6927;51.256;9.410;2023-11-19T02:47:55;233.50;;;224.53;;
13710;SDS011;6927;51.256;9.410;2023-11-19T02:50:21;227.70;;;219.03;;
13710;SDS011;6927;51.256;9.410;2023-11-19T02:52:51;237.73;;;228.63;;
13710;SDS011;6927;51.256;9.410;2023-11-19T02:55:18;174.00;;;167.33;;
13710;SDS011;6927;51.256;9.410;2023-11-19T02:57:44;224.47;;;215.67;;
13710;SDS011;6927;51.256;9.410;2023-11-19T03:00:17;198.73;;;191.10;;
13710;SDS011;6927;51.256;9.410;2023-11-19T03:02:44;205.57;;;197.73;;
13710;SDS011;6927;51.256;9.410;2023-11-19T03:05:23;210.60;;;202.40;;
13710;SDS011;6927;51.256;9.410;2023-11-19T03:07:50;225.17;;;216.50;;
13710;SDS011;6927;51.256;9.410;2023-11-19T03:10:15;221.70;;;213.10;;
13710;SDS011;6927;51.256;9.410;2023-11-19T03:12:41;164.77;;;158.37;;
13710;SDS011;6927;51.256;9.410;2023-11-19T03:15:08;205.33;;;197.27;;
13710;SDS011;6927;51.256;9.410;2023-11-19T03:17:35;226.70;;;217.97;;
13710;SDS011;6927;51.256;9.410;2023-11-19T03:20:07;190.90;;;183.67;;
13710;SDS011;6927;51.256;9.410;2023-11-19T03:22:41;178.27;;;171.50;;
13710;SDS011;6927;51.256;9.410;2023-11-19T03:25:07;212.70;;;204.60;;
13710;SDS011;6927;51.256;9.410;2023-11-19T03:27:36;200.00;;;192.20;;
13710;SDS011;6927;51.256;9.410;2023-11-19T03:30:03;205.20;;;197.43;;
13710;SDS011;6927;51.256;9.410;2023-11-19T03:32:34;202.57;;;195.03;;
13710;SDS011;6927;51.256;9.410;2023-11-19T03:35:00;185.00;;;178.03;;
13710;SDS011;6927;51.256;9.410;2023-11-19T03:37:26;208.00;;;200.20;;
13710;SDS011;6927;51.256;9.410;2023-11-19T03:39:53;187.50;;;180.53;;
13710;SDS011;6927;51.256;9.410;2023-11-19T03:42:20;185.80;;;178.93;;
13710;SDS011;6927;51.256;9.410;2023-11-19T03:44:46;183.80;;;176.77;;
13710;SDS011;6927;51.256;9.410;2023-11-19T03:47:11;175.80;;;169.10;;
13710;SDS011;6927;51.256;9.410;2023-11-19T03:49:37;185.33;;;178.27;;
13710;SDS011;6927;51.256;9.410;2023-11-19T03:52:02;188.77;;;181.60;;
13710;SDS011;6927;51.256;9.410;2023-11-19T03:54:28;170.63;;;163.93;;
13710;SDS011;6927;51.256;9.410;2023-11-19T03:56:54;171.97;;;165.27;;
13710;SDS011;6927;51.256;9.410;2023-11-19T03:59:20;177.97;;;171.03;;
13710;SDS011;6927;51.256;9.410;2023-11-19T04:01:45;203.20;;;195.17;;
13710;SDS011;6927;51.256;9.410;2023-11-19T04:04:11;166.90;;;160.23;;
13710;SDS011;6927;51.256;9.410;2023-11-19T04:06:37;173.27;;;166.30;;
13710;SDS011;6927;51.256;9.410;2023-11-19T04:09:03;169.53;;;162.93;;
13710;SDS011;6927;51.256;9.410;2023-11-19T04:11:28;168.93;;;162.30;;
13710;SDS011;6927;51.256;9.410;2023-11-19T04:13:54;170.27;;;163.63;;
13710;SDS011;6927;51.256;9.410;2023-11-19T04:16:25;169.57;;;162.83;;
13710;SDS011;6927;51.256;9.410;2023-11-19T04:18:53;158.20;;;151.93;;
13710;SDS011;6927;51.256;9.410;2023-11-19T04:21:18;152.60;;;146.60;;
13710;SDS011;6927;51.256;9.410;2023-11-19T04:23:44;167.13;;;160.60;;
13710;SDS011;6927;51.256;9.410;2023-11-19T04:26:09;150.37;;;144.53;;
13710;SDS011;6927;51.256;9.410;2023-11-19T04:28:35;168.30;;;161.80;;
13710;SDS011;6927;51.256;9.410;2023-11-19T04:31:00;179.17;;;172.17;;
13710;SDS011;6927;51.256;9.410;2023-11-19T04:33:28;167.30;;;160.50;;
13710;SDS011;6927;51.256;9.410;2023-11-19T04:35:53;194.30;;;186.83;;
13710;SDS011;6927;51.256;9.410;2023-11-19T04:38:19;178.63;;;171.60;;
13710;SDS011;6927;51.256;9.410;2023-11-19T04:40:45;161.73;;;155.53;;
13710;SDS011;6927;51.256;9.410;2023-11-19T04:43:10;157.73;;;151.60;;
13710;SDS011;6927;51.256;9.410;2023-11-19T04:45:36;157.47;;;151.27;;
13710;SDS011;6927;51.256;9.410;2023-11-19T04:48:01;184.03;;;176.83;;
13710;SDS011;6927;51.256;9.410;2023-11-19T04:50:27;180.50;;;173.67;;
13710;SDS011;6927;51.256;9.410;2023-11-19T04:52:53;193.33;;;185.87;;
13710;SDS011;6927;51.256;9.410;2023-11-19T04:55:19;179.77;;;172.83;;
13710;SDS011;6927;51.256;9.410;2023-11-19T04:57:45;178.97;;;172.03;;
13710;SDS011;6927;51.256;9.410;2023-11-19T05:00:10;187.57;;;180.17;;
13710;SDS011;6927;51.256;9.410;2023-11-19T05:02:36;171.20;;;164.53;;
13710;SDS011;6927;51.256;9.410;2023-11-19T05:05:02;187.53;;;180.30;;
13710;SDS011;6927;51.256;9.410;2023-11-19T05:07:31;166.93;;;160.47;;
13710;SDS011;6927;51.256;9.410;2023-11-19T05:09:57;178.17;;;171.40;;
13710;SDS011;6927;51.256;9.410;2023-11-19T05:12:23;189.13;;;181.87;;
13710;SDS011;6927;51.256;9.410;2023-11-19T05:14:49;175.70;;;169.00;;
13710;SDS011;6927;51.256;9.410;2023-11-19T05:17:18;196.63;;;189.10;;
13710;SDS011;6927;51.256;9.410;2023-11-19T05:19:44;199.73;;;192.00;;
13710;SDS011;6927;51.256;9.410;2023-11-19T05:22:10;178.20;;;171.43;;
13710;SDS011;6927;51.256;9.410;2023-11-19T05:24:35;164.87;;;157.70;;
13710;SDS011;6927;51.256;9.410;2023-11-19T05:27:01;187.17;;;179.93;;
13710;SDS011;6927;51.256;9.410;2023-11-19T05:29:27;184.87;;;177.77;;
13710;SDS011;6927;51.256;9.410;2023-11-19T05:31:53;182.57;;;175.67;;
13710;SDS011;6927;51.256;9.410;2023-11-19T05:34:20;186.47;;;179.30;;
13710;SDS011;6927;51.256;9.410;2023-11-19T05:36:46;170.83;;;163.93;;
13710;SDS011;6927;51.256;9.410;2023-11-19T05:39:12;174.97;;;167.97;;
13710;SDS011;6927;51.256;9.410;2023-11-19T05:41:38;170.97;;;164.30;;
13710;SDS011;6927;51.256;9.410;2023-11-19T05:44:04;173.17;;;166.37;;
13710;SDS011;6927;51.256;9.410;2023-11-19T05:46:29;168.37;;;161.87;;
13710;SDS011;6927;51.256;9.410;2023-11-19T05:48:55;173.97;;;167.37;;
13710;SDS011;6927;51.256;9.410;2023-11-19T05:51:20;178.30;;;171.30;;
13710;SDS011;6927;51.256;9.410;2023-11-19T05:53:46;174.10;;;167.40;;
13710;SDS011;6927;51.256;9.410;2023-11-19T05:56:12;181.33;;;174.37;;
13710;SDS011;6927;51.256;9.410;2023-11-19T05:58:38;202.03;;;194.33;;
13710;SDS011;6927;51.256;9.410;2023-11-19T06:01:05;193.13;;;185.77;;
13710;SDS011;6927;51.256;9.410;2023-11-19T06:03:32;177.83;;;171.07;;
13710;SDS011;6927;51.256;9.410;2023-11-19T06:05:58;177.20;;;170.23;;
13710;SDS011;6927;51.256;9.410;2023-11-19T06:08:23;179.13;;;172.07;;
13710;SDS011;6927;51.256;9.410;2023-11-19T06:10:52;189.10;;;181.97;;
13710;SDS011;6927;51.256;9.410;2023-11-19T06:13:17;191.60;;;184.33;;
13710;SDS011;6927;51.256;9.410;2023-11-19T06:15:44;185.57;;;178.43;;
13710;SDS011;6927;51.256;9.410;2023-11-19T06:18:10;201.20;;;193.67;;
13710;SDS011;6927;51.256;9.410;2023-11-19T06:20:37;186.77;;;179.50;;
13710;SDS011;6927;51.256;9.410;2023-11-19T06:23:03;183.57;;;176.37;;
13710;SDS011;6927;51.256;9.410;2023-11-19T06:25:28;188.47;;;181.27;;
13710;SDS011;6927;51.256;9.410;2023-11-19T06:27:54;175.93;;;169.13;;
13710;SDS011;6927;51.256;9.410;2023-11-19T06:30:20;173.53;;;166.77;;
13710;SDS011;6927;51.256;9.410;2023-11-19T06:32:46;182.30;;;175.23;;
13710;SDS011;6927;51.256;9.410;2023-11-19T06:35:12;184.53;;;177.47;;
13710;SDS011;6927;51.256;9.410;2023-11-19T06:37:39;199.30;;;191.83;;
13710;SDS011;6927;51.256;9.410;2023-11-19T06:40:05;175.13;;;168.43;;
13710;SDS011;6927;51.256;9.410;2023-11-19T06:42:31;167.07;;;160.67;;
13710;SDS011;6927;51.256;9.410;2023-11-19T06:44:56;157.30;;;151.13;;
13710;SDS011;6927;51.256;9.410;2023-11-19T06:47:22;171.47;;;165.03;;
13710;SDS011;6927;51.256;9.410;2023-11-19T06:49:51;156.17;;;150.27;;
13710;SDS011;6927;51.256;9.410;2023-11-19T06:52:17;143.83;;;138.40;;
13710;SDS011;6927;51.256;9.410;2023-11-19T06:54:43;136.57;;;131.27;;
13710;SDS011;6927;51.256;9.410;2023-11-19T06:57:10;128.33;;;123.33;;
13710;SDS011;6927;51.256;9.410;2023-11-19T06:59:36;135.90;;;130.87;;
13710;SDS011;6927;51.256;9.410;2023-11-19T07:02:02;129.83;;;124.93;;
13710;SDS011;6927;51.256;9.410;2023-11-19T07:04:28;139.43;;;134.03;;
13710;SDS011;6927;51.256;9.410;2023-11-19T07:06:53;132.37;;;127.43;;
13710;SDS011;6927;51.256;9.410;2023-11-19T07:09:19;134.13;;;129.13;;
13710;SDS011;6927;51.256;9.410;2023-11-19T07:11:46;140.83;;;135.10;;
13710;SDS011;6927;51.256;9.410;2023-11-19T07:14:11;140.80;;;135.60;;
13710;SDS011;6927;51.256;9.410;2023-11-19T07:16:37;140.03;;;134.50;;
13710;SDS011;6927;51.256;9.410;2023-11-19T07:19:04;122.77;;;117.87;;
13710;SDS011;6927;51.256;9.410;2023-11-19T07:21:30;148.17;;;142.70;;
13710;SDS011;6927;51.256;9.410;2023-11-19T07:23:57;146.73;;;141.30;;
13710;SDS011;6927;51.256;9.410;2023-11-19T07:26:23;146.17;;;140.53;;
13710;SDS011;6927;51.256;9.410;2023-11-19T07:28:49;134.53;;;129.50;;
13710;SDS011;6927;51.256;9.410;2023-11-19T07:31:15;149.60;;;143.63;;
13710;SDS011;6927;51.256;9.410;2023-11-19T07:33:40;166.17;;;160.00;;
13710;SDS011;6927;51.256;9.410;2023-11-19T07:36:09;166.73;;;160.40;;
13710;SDS011;6927;51.256;9.410;2023-11-19T07:38:36;170.63;;;164.03;;
13710;SDS011;6927;51.256;9.410;2023-11-19T07:41:02;166.70;;;159.73;;
13710;SDS011;6927;51.256;9.410;2023-11-19T07:43:28;178.53;;;171.67;;
13710;SDS011;6927;51.256;9.410;2023-11-19T07:45:53;174.43;;;167.77;;
13710;SDS011;6927;51.256;9.410;2023-11-19T07:48:19;169.80;;;163.47;;
13710;SDS011;6927;51.256;9.410;2023-11-19T07:50:48;166.63;;;160.27;;
13710;SDS011;6927;51.256;9.410;2023-11-19T07:53:15;193.97;;;186.20;;
13710;SDS011;6927;51.256;9.410;2023-11-19T07:55:41;191.67;;;184.30;;
13710;SDS011;6927;51.256;9.410;2023-11-19T07:58:07;198.43;;;190.77;;
13710;SDS011;6927;51.256;9.410;2023-11-19T08:00:32;171.80;;;165.33;;
13710;SDS011;6927;51.256;9.410;2023-11-19T08:02:58;187.93;;;180.97;;
13710;SDS011;6927;51.256;9.410;2023-11-19T08:05:23;219.47;;;211.10;;
13710;SDS011;6927;51.256;9.410;2023-11-19T08:07:52;239.27;;;230.33;;
13710;SDS011;6927;51.256;9.410;2023-11-19T08:10:22;236.77;;;227.67;;
13710;SDS011;6927;51.256;9.410;2023-11-19T08:12:47;237.90;;;229.13;;
13710;SDS011;6927;51.256;9.410;2023-11-19T08:15:13;216.13;;;208.03;;
13710;SDS011;6927;51.256;9.410;2023-11-19T08:17:39;221.60;;;213.27;;
13710;SDS011;6927;51.256;9.410;2023-11-19T08:20:05;210.77;;;202.83;;
13710;SDS011;6927;51.256;9.410;2023-11-19T08:22:35;203.63;;;196.03;;
13710;SDS011;6927;51.256;9.410;2023-11-19T08:25:04;279.00;;;268.50;;
13710;SDS011;6927;51.256;9.410;2023-11-19T08:27:30;307.63;;;295.47;;
13710;SDS011;6927;51.256;9.410;2023-11-19T08:29:56;335.40;;;322.30;;
13710;SDS011;6927;51.256;9.410;2023-11-19T08:32:25;364.33;;;350.37;;
13710;SDS011;6927;51.256;9.410;2023-11-19T08:34:52;376.90;;;362.13;;
13710;SDS011;6927;51.256;9.410;2023-11-19T08:37:18;429.67;;;412.67;;
13710;SDS011;6927;51.256;9.410;2023-11-19T08:39:46;428.70;;;411.73;;
13710;SDS011;6927;51.256;9.410;2023-11-19T08:42:12;416.23;;;399.80;;
13710;SDS011;6927;51.256;9.410;2023-11-19T08:44:38;409.93;;;392.97;;
13710;SDS011;6927;51.256;9.410;2023-11-19T08:47:03;1999.90;;;999.90;;
13710;SDS011;6927;51.256;9.410;2023-11-19T08:49:29;1999.90;;;999.90;;
13710;SDS011;6927;51.256;9.410;2023-11-19T08:51:55;1999.90;;;999.90;;
13710;SDS011;6927;51.256;9.410;2023-11-19T08:54:20;1999.90;;;999.90;;
13710;SDS011;6927;51.256;9.410;2023-11-19T08:56:47;1999.90;;;999.90;;
13710;SDS011;6927;51.256;9.410;2023-11-19T08:59:13;1999.90;;;999.90;;
13710;SDS011;6927;51.256;9.410;2023-11-19T09:01:40;1999.90;;;999.90;;
13710;SDS011;6927;51.256;9.410;2023-11-19T09:04:06;1999.90;;;999.90;;
13710;SDS011;6927;51.256;9.410;2023-11-19T09:06:31;1999.90;;;999.90;;
13710;SDS011;6927;51.256;9.410;2023-11-19T09:08:57;1999.90;;;999.90;;
13710;SDS011;6927;51.256;9.410;2023-11-19T09:11:27;1999.90;;;999.90;;
13710;SDS011;6927;51.256;9.410;2023-11-19T09:13:52;1999.90;;;999.90;;
13710;SDS011;6927;51.256;9.410;2023-11-19T09:16:18;1999.90;;;999.90;;
13710;SDS011;6927;51.256;9.410;2023-11-19T09:18:43;1999.90;;;999.90;;
13710;SDS011;6927;51.256;9.410;2023-11-19T09:21:12;1999.90;;;999.90;;
13710;SDS011;6927;51.256;9.410;2023-11-19T09:23:38;1999.90;;;999.90;;
13710;SDS011;6927;51.256;9.410;2023-11-19T09:26:04;1999.90;;;999.90;;
13710;SDS011;6927;51.256;9.410;2023-11-19T09:28:33;1999.90;;;999.90;;
13710;SDS011;6927;51.256;9.410;2023-11-19T09:30:59;1999.90;;;999.90;;
13710;SDS011;6927;51.256;9.410;2023-11-19T09:33:24;1999.90;;;999.90;;
13710;SDS011;6927;51.256;9.410;2023-11-19T09:35:51;1999.90;;;999.90;;
13710;SDS011;6927;51.256;9.410;2023-11-19T09:38:16;1999.90;;;999.90;;
13710;SDS011;6927;51.256;9.410;2023-11-19T09:40:42;1999.90;;;999.90;;
13710;SDS011;6927;51.256;9.410;2023-11-19T09:43:08;1999.90;;;999.90;;
13710;SDS011;6927;51.256;9.410;2023-11-19T09:46:34;1999.90;;;999.90;;
13710;SDS011;6927;51.256;9.410;2023-11-19T09:48:32;1999.90;;;999.90;;
13710;SDS011;6927;51.256;9.410;2023-11-19T09:50:59;1999.90;;;999.90;;
13710;SDS011;6927;51.256;9.410;2023-11-19T09:53:26;1999.90;;;999.90;;
13710;SDS011;6927;51.256;9.410;2023-11-19T09:55:52;1999.90;;;999.90;;
13710;SDS011;6927;51.256;9.410;2023-11-19T09:58:18;1999.90;;;999.90;;
13710;SDS011;6927;51.256;9.410;2023-11-19T10:00:44;1999.90;;;999.90;;
13710;SDS011;6927;51.256;9.410;2023-11-19T10:03:10;1999.90;;;999.90;;
13710;SDS011;6927;51.256;9.410;2023-11-19T10:05:37;1999.90;;;999.90;;
13710;SDS011;6927;51.256;9.410;2023-11-19T10:08:04;1999.90;;;999.90;;
13710;SDS011;6927;51.256;9.410;2023-11-19T10:10:30;1999.90;;;999.90;;
13710;SDS011;6927;51.256;9.410;2023-11-19T10:12:55;1999.90;;;999.90;;
13710;SDS011;6927;51.256;9.410;2023-11-19T10:15:21;1999.90;;;999.90;;
13710;SDS011;6927;51.256;9.410;2023-11-19T10:17:50;1999.90;;;999.90;;
13710;SDS011;6927;51.256;9.410;2023-11-19T10:20:16;1999.90;;;999.90;;
13710;SDS011;6927;51.256;9.410;2023-11-19T10:22:42;1999.90;;;999.90;;
13710;SDS011;6927;51.256;9.410;2023-11-19T10:25:23;1999.90;;;999.90;;
13710;SDS011;6927;51.256;9.410;2023-11-19T10:27:50;1999.90;;;999.90;;
13710;SDS011;6927;51.256;9.410;2023-11-19T10:30:20;1999.90;;;999.90;;
13710;SDS011;6927;51.256;9.410;2023-11-19T10:33:10;1999.90;;;999.90;;
13710;SDS011;6927;51.256;9.410;2023-11-19T10:35:55;1999.90;;;999.90;;
13710;SDS011;6927;51.256;9.410;2023-11-19T10:38:22;1999.90;;;999.90;;
13710;SDS011;6927;51.256;9.410;2023-11-19T10:40:48;1999.90;;;999.90;;
13710;SDS011;6927;51.256;9.410;2023-11-19T10:43:15;1999.90;;;999.90;;
13710;SDS011;6927;51.256;9.410;2023-11-19T10:45:42;1999.90;;;999.90;;
13710;SDS011;6927;51.256;9.410;2023-11-19T10:48:08;1999.90;;;999.90;;
13710;SDS011;6927;51.256;9.410;2023-11-19T10:50:35;1999.90;;;999.90;;
13710;SDS011;6927;51.256;9.410;2023-11-19T10:53:01;1999.90;;;999.90;;
13710;SDS011;6927;51.256;9.410;2023-11-19T10:55:32;1999.90;;;999.90;;
13710;SDS011;6927;51.256;9.410;2023-11-19T10:58:00;1999.90;;;999.90;;
13710;SDS011;6927;51.256;9.410;2023-11-19T11:00:29;1999.90;;;999.90;;
13710;SDS011;6927;51.256;9.410;2023-11-19T11:03:00;1999.90;;;999.90;;
13710;SDS011;6927;51.256;9.410;2023-11-19T11:05:32;1999.90;;;999.90;;
13710;SDS011;6927;51.256;9.410;2023-11-19T11:08:00;1999.90;;;999.90;;
13710;SDS011;6927;51.256;9.410;2023-11-19T11:10:26;1999.90;;;999.90;;
13710;SDS011;6927;51.256;9.410;2023-11-19T11:12:58;1999.90;;;999.90;;
13710;SDS011;6927;51.256;9.410;2023-11-19T11:15:26;1999.90;;;999.90;;
13710;SDS011;6927;51.256;9.410;2023-11-19T11:17:55;1999.90;;;999.90;;
13710;SDS011;6927;51.256;9.410;2023-11-19T11:20:24;1999.90;;;999.90;;
13710;SDS011;6927;51.256;9.410;2023-11-19T11:22:58;1999.90;;;999.90;;
13710;SDS011;6927;51.256;9.410;2023-11-19T11:28:41;1999.90;;;999.90;;
13710;SDS011;6927;51.256;9.410;2023-11-19T11:39:31;1999.90;;;999.90;;
13710;SDS011;6927;51.256;9.410;2023-11-19T11:50:14;1999.90;;;999.90;;
13710;SDS011;6927;51.256;9.410;2023-11-19T11:57:49;1999.90;;;999.90;;
13710;SDS011;6927;51.256;9.410;2023-11-19T12:00:21;1999.90;;;999.90;;
13710;SDS011;6927;51.256;9.410;2023-11-19T12:03:06;1999.90;;;999.90;;
13710;SDS011;6927;51.256;9.410;2023-11-19T12:05:33;1999.90;;;999.90;;
13710;SDS011;6927;51.256;9.410;2023-11-19T12:08:04;1999.90;;;999.90;;
13710;SDS011;6927;51.256;9.410;2023-11-19T12:10:45;1999.90;;;999.90;;
13710;SDS011;6927;51.256;9.410;2023-11-19T12:13:15;1999.90;;;999.90;;
13710;SDS011;6927;51.256;9.410;2023-11-19T12:18:31;1999.90;;;999.90;;
13710;SDS011;6927;51.256;9.410;2023-11-19T12:20:57;1999.90;;;999.90;;
13710;SDS011;6927;51.256;9.410;2023-11-19T12:23:30;1999.90;;;999.90;;
13710;SDS011;6927;51.256;9.410;2023-11-19T12:25:56;1999.90;;;999.90;;
13710;SDS011;6927;51.256;9.410;2023-11-19T12:28:23;1999.90;;;999.90;;
13710;SDS011;6927;51.256;9.410;2023-11-19T12:30:51;1999.90;;;999.90;;
13710;SDS011;6927;51.256;9.410;2023-11-19T12:33:18;1999.90;;;999.90;;
13710;SDS011;6927;51.256;9.410;2023-11-19T12:35:48;1999.90;;;999.90;;
13710;SDS011;6927;51.256;9.410;2023-11-19T12:38:25;1999.90;;;999.90;;
13710;SDS011;6927;51.256;9.410;2023-11-19T12:41:06;1999.90;;;999.90;;
13710;SDS011;6927;51.256;9.410;2023-11-19T12:43:33;1999.90;;;999.90;;
13710;SDS011;6927;51.256;9.410;2023-11-19T12:46:03;1999.90;;;999.90;;
13710;SDS011;6927;51.256;9.410;2023-11-19T12:48:42;1999.90;;;999.90;;
13710;SDS011;6927;51.256;9.410;2023-11-19T12:51:07;1999.90;;;999.90;;
13710;SDS011;6927;51.256;9.410;2023-11-19T12:53:46;1999.90;;;999.90;;
13710;SDS011;6927;51.256;9.410;2023-11-19T12:56:23;1999.90;;;999.90;;
13710;SDS011;6927;51.256;9.410;2023-11-19T12:58:49;1999.90;;;999.90;;
13710;SDS011;6927;51.256;9.410;2023-11-19T13:01:15;1999.90;;;999.90;;
13710;SDS011;6927;51.256;9.410;2023-11-19T13:03:43;1999.90;;;999.90;;
13710;SDS011;6927;51.256;9.410;2023-11-19T13:06:10;1999.90;;;999.90;;
13710;SDS011;6927;51.256;9.410;2023-11-19T13:08:38;1999.90;;;999.90;;
13710;SDS011;6927;51.256;9.410;2023-11-19T13:11:04;1999.90;;;999.90;;
13710;SDS011;6927;51.256;9.410;2023-11-19T13:13:31;1999.90;;;999.90;;
13710;SDS011;6927;51.256;9.410;2023-11-19T13:16:03;1999.90;;;999.90;;
13710;SDS011;6927;51.256;9.410;2023-11-19T13:18:32;1999.90;;;999.90;;
13710;SDS011;6927;51.256;9.410;2023-11-19T13:20:57;1999.90;;;999.90;;
13710;SDS011;6927;51.256;9.410;2023-11-19T13:23:23;1999.90;;;999.90;;
13710;SDS011;6927;51.256;9.410;2023-11-19T13:25:48;1999.90;;;999.90;;
13710;SDS011;6927;51.256;9.410;2023-11-19T13:28:14;1999.90;;;999.90;;
13710;SDS011;6927;51.256;9.410;2023-11-19T13:30:40;1999.90;;;999.90;;
13710;SDS011;6927;51.256;9.410;2023-11-19T13:33:05;1999.90;;;999.90;;
13710;SDS011;6927;51.256;9.410;2023-11-19T13:35:31;1999.90;;;999.90;;
13710;SDS011;6927;51.256;9.410;2023-11-19T13:37:56;1999.90;;;999.90;;
13710;SDS011;6927;51.256;9.410;2023-11-19T13:40:23;1999.90;;;999.90;;
13710;SDS011;6927;51.256;9.410;2023-11-19T13:42:49;1999.90;;;999.90;;
13710;SDS011;6927;51.256;9.410;2023-11-19T13:45:15;1999.90;;;999.90;;
13710;SDS011;6927;51.256;9.410;2023-11-19T13:47:43;1999.90;;;999.90;;
13710;SDS011;6927;51.256;9.410;2023-11-19T13:50:11;1999.90;;;999.90;;
13710;SDS011;6927;51.256;9.410;2023-11-19T13:52:38;1999.90;;;999.90;;
13710;SDS011;6927;51.256;9.410;2023-11-19T13:55:05;1999.90;;;999.90;;
13710;SDS011;6927;51.256;9.410;2023-11-19T13:57:33;1999.90;;;999.90;;
13710;SDS011;6927;51.256;9.410;2023-11-19T14:00:00;1999.90;;;999.90;;
13710;SDS011;6927;51.256;9.410;2023-11-19T14:02:35;1999.90;;;999.90;;
13710;SDS011;6927;51.256;9.410;2023-11-19T14:05:01;1999.90;;;999.90;;
13710;SDS011;6927;51.256;9.410;2023-11-19T14:07:27;1999.90;;;999.90;;
13710;SDS011;6927;51.256;9.410;2023-11-19T14:09:53;1999.90;;;999.90;;
13710;SDS011;6927;51.256;9.410;2023-11-19T14:12:19;1999.90;;;999.90;;
13710;SDS011;6927;51.256;9.410;2023-11-19T14:14:45;1999.90;;;999.90;;
13710;SDS011;6927;51.256;9.410;2023-11-19T14:17:10;1999.90;;;999.90;;
13710;SDS011;6927;51.256;9.410;2023-11-19T14:19:36;1999.90;;;999.90;;
13710;SDS011;6927;51.256;9.410;2023-11-19T14:22:04;1999.90;;;999.90;;
13710;SDS011;6927;51.256;9.410;2023-11-19T14:24:30;1999.90;;;999.90;;
13710;SDS011;6927;51.256;9.410;2023-11-19T14:26:55;1999.90;;;999.90;;
13710;SDS011;6927;51.256;9.410;2023-11-19T14:29:23;1999.90;;;999.90;;
13710;SDS011;6927;51.256;9.410;2023-11-19T14:31:51;1999.90;;;999.90;;